createdAt,value
2017-11-21T00:01:00.778Z,79.70
2017-11-21T00:03:28.235Z,79.60
2017-11-21T00:05:55.736Z,79.60
2017-11-21T00:08:23.210Z,79.50
2017-11-21T00:10:50.662Z,79.60
2017-11-21T00:13:18.143Z,79.50
2017-11-21T00:15:45.654Z,79.50
2017-11-21T00:18:13.230Z,79.40
2017-11-21T00:20:40.690Z,79.30
2017-11-21T00:23:08.148Z,79.30
2017-11-21T00:25:35.994Z,79.30
2017-11-21T00:28:03.483Z,79.30
2017-11-21T00:30:30.988Z,79.30
2017-11-21T00:32:58.454Z,79.30
2017-11-21T00:35:26.676Z,79.40
2017-11-21T00:37:54.170Z,79.30
2017-11-21T00:40:21.627Z,79.30
2017-11-21T00:42:49.086Z,79.30
2017-11-21T00:45:16.582Z,79.30
2017-11-21T00:47:44.039Z,79.30
2017-11-21T00:50:12.278Z,79.40
2017-11-21T00:52:39.735Z,79.20
2017-11-21T00:55:07.224Z,79.40
2017-11-21T00:57:35.461Z,79.30
2017-11-21T01:00:02.935Z,80.00
2017-11-21T01:02:30.423Z,79.20
2017-11-21T01:04:57.880Z,79.20
2017-11-21T01:07:25.329Z,79.20
2017-11-21T01:09:53.579Z,79.30
2017-11-21T01:12:21.053Z,80.00
2017-11-21T01:14:49.320Z,79.30
2017-11-21T01:17:16.788Z,79.30
2017-11-21T01:19:45.023Z,79.40
2017-11-21T01:22:12.510Z,79.40
2017-11-21T01:24:39.962Z,79.40
2017-11-21T01:27:07.442Z,79.40
2017-11-21T01:29:35.686Z,79.40
2017-11-21T01:32:03.170Z,79.20
2017-11-21T01:34:30.622Z,79.30
2017-11-21T01:36:58.110Z,79.30
2017-11-21T01:39:26.334Z,79.20
2017-11-21T01:41:53.787Z,79.20
2017-11-21T01:44:21.276Z,79.20
2017-11-21T01:46:48.725Z,79.30
2017-11-21T01:49:16.206Z,79.20
2017-11-21T01:51:44.421Z,79.20
2017-11-21T01:54:11.909Z,79.20
2017-11-21T01:56:39.358Z,79.20
2017-11-21T01:59:06.838Z,79.20
2017-11-21T02:01:34.294Z,79.20
2017-11-21T02:04:01.776Z,79.20
2017-11-21T02:06:30.062Z,79.30
2017-11-21T02:08:57.514Z,79.30
2017-11-21T02:11:25.767Z,79.30
2017-11-21T02:13:53.231Z,79.30
2017-11-21T02:16:20.730Z,79.30
2017-11-21T02:18:48.198Z,79.30
2017-11-21T02:21:15.662Z,79.10
2017-11-21T02:23:43.150Z,79.20
2017-11-21T02:26:10.606Z,79.30
2017-11-21T02:28:38.990Z,79.30
2017-11-21T02:31:06.471Z,79.20
2017-11-21T02:33:34.711Z,79.20
2017-11-21T02:36:03.039Z,79.20
2017-11-21T02:38:31.258Z,79.20
2017-11-21T02:40:59.503Z,79.30
2017-11-21T02:43:26.987Z,79.10
2017-11-21T02:45:54.442Z,79.30
2017-11-21T02:48:21.919Z,79.20
2017-11-21T02:50:49.407Z,79.20
2017-11-21T02:53:17.626Z,79.10
2017-11-21T02:55:45.103Z,79.10
2017-11-21T02:58:12.563Z,79.00
2017-11-21T03:00:40.042Z,79.70
2017-11-21T03:03:07.503Z,78.90
2017-11-21T03:05:34.994Z,78.90
2017-11-21T03:08:02.450Z,78.80
2017-11-21T03:10:29.930Z,78.80
2017-11-21T03:12:57.410Z,78.80
2017-11-21T03:15:24.872Z,78.70
2017-11-21T03:17:52.345Z,78.70
2017-11-21T03:20:31.663Z,78.60
2017-11-21T03:23:10.765Z,78.60
2017-11-21T03:25:49.842Z,78.60
2017-11-21T03:28:17.324Z,78.70
2017-11-21T03:30:45.565Z,78.80
2017-11-21T03:33:13.019Z,78.70
2017-11-21T03:35:40.506Z,78.70
2017-11-21T03:38:07.962Z,78.70
2017-11-21T03:40:35.454Z,78.60
2017-11-21T03:43:02.911Z,78.60
2017-11-21T03:45:30.386Z,78.60
2017-11-21T03:47:57.841Z,78.60
2017-11-21T03:50:25.336Z,78.60
2017-11-21T03:52:52.786Z,78.60
2017-11-21T03:55:20.266Z,78.60
2017-11-21T03:57:47.718Z,78.60
2017-11-21T04:00:15.194Z,78.60
2017-11-21T04:02:42.684Z,78.50
2017-11-21T04:05:11.063Z,78.50
2017-11-21T04:07:38.526Z,78.50
2017-11-21T04:10:06.014Z,78.50
2017-11-21T04:12:33.472Z,78.50
2017-11-21T04:15:00.958Z,78.50
2017-11-21T04:17:28.418Z,78.50
2017-11-21T04:19:55.870Z,79.30
2017-11-21T04:22:23.351Z,78.60
2017-11-21T04:24:50.833Z,78.60
2017-11-21T04:27:18.325Z,78.70
2017-11-21T04:29:45.855Z,78.90
2017-11-21T04:32:13.359Z,78.80
2017-11-21T04:34:41.743Z,78.80
2017-11-21T04:37:09.193Z,78.80
2017-11-21T04:39:36.678Z,78.80
2017-11-21T04:42:04.931Z,79.00
2017-11-21T04:44:32.394Z,79.00
2017-11-21T04:46:59.906Z,78.90
2017-11-21T04:49:27.375Z,78.80
2017-11-21T04:51:54.826Z,78.80
2017-11-21T04:54:22.315Z,78.90
2017-11-21T04:56:49.770Z,78.90
2017-11-21T04:59:17.260Z,78.90
2017-11-21T05:01:45.482Z,78.90
2017-11-21T05:04:12.963Z,78.90
2017-11-21T05:06:40.420Z,78.80
2017-11-21T05:09:07.899Z,78.80
2017-11-21T05:11:35.350Z,78.80
2017-11-21T05:14:02.875Z,78.80
2017-11-21T05:16:30.429Z,78.80
2017-11-21T05:18:57.894Z,78.80
2017-11-21T05:21:25.348Z,78.80
2017-11-21T05:23:52.830Z,78.60
2017-11-21T05:26:20.661Z,78.80
2017-11-21T05:28:48.113Z,78.80
2017-11-21T05:31:15.610Z,78.80
2017-11-21T05:33:43.107Z,78.80
2017-11-21T05:36:11.347Z,78.80
2017-11-21T05:38:38.859Z,78.70
2017-11-21T05:41:06.315Z,78.80
2017-11-21T05:43:33.775Z,78.80
2017-11-21T05:46:01.359Z,78.70
2017-11-21T05:48:28.814Z,78.80
2017-11-21T05:50:56.279Z,78.80
2017-11-21T05:53:23.764Z,78.70
2017-11-21T05:55:51.228Z,78.70
2017-11-21T05:58:18.711Z,78.70
2017-11-21T06:00:46.947Z,78.60
2017-11-21T06:03:14.443Z,78.70
2017-11-21T06:05:42.662Z,78.60
2017-11-21T06:08:10.123Z,78.60
2017-11-21T06:10:37.597Z,78.60
2017-11-21T06:13:05.058Z,78.70
2017-11-21T06:15:32.562Z,78.70
2017-11-21T06:18:00.807Z,78.60
2017-11-21T06:20:28.530Z,78.60
2017-11-21T06:22:56.006Z,78.60
2017-11-21T06:25:24.546Z,78.60
2017-11-21T06:27:52.063Z,78.50
2017-11-21T06:30:19.602Z,78.60
2017-11-21T06:32:47.941Z,78.50
2017-11-21T06:35:17.924Z,78.70
2017-11-21T06:37:45.718Z,78.50
2017-11-21T06:40:13.250Z,78.40
2017-11-21T06:42:40.710Z,78.50
2017-11-21T06:45:08.194Z,78.40
2017-11-21T06:47:36.447Z,78.40
2017-11-21T06:50:03.935Z,78.40
2017-11-21T06:52:32.160Z,78.50
2017-11-21T06:54:59.623Z,78.40
2017-11-21T06:57:27.102Z,78.40
2017-11-21T06:59:54.558Z,78.30
2017-11-21T07:02:22.034Z,78.30
2017-11-21T07:04:50.307Z,78.20
2017-11-21T07:07:18.586Z,78.20
2017-11-21T07:09:46.815Z,78.40
2017-11-21T07:12:15.069Z,78.10
2017-11-21T07:14:42.518Z,78.20
2017-11-21T07:17:10.015Z,78.20
2017-11-21T07:19:37.500Z,78.10
2017-11-21T07:22:04.964Z,78.10
2017-11-21T07:24:33.218Z,78.20
2017-11-21T07:27:00.679Z,78.20
2017-11-21T07:29:28.156Z,78.20
2017-11-21T07:31:55.612Z,78.30
2017-11-21T07:34:23.086Z,78.30
2017-11-21T07:36:51.370Z,78.30
2017-11-21T07:39:19.627Z,78.30
2017-11-21T07:41:47.113Z,78.30
2017-11-21T07:44:15.271Z,78.20
2017-11-21T07:46:43.528Z,78.20
2017-11-21T07:49:11.003Z,78.10
2017-11-21T07:51:38.491Z,78.20
2017-11-21T07:54:05.987Z,78.30
2017-11-21T07:56:33.476Z,78.40
2017-11-21T07:59:00.928Z,78.40
2017-11-21T08:01:28.416Z,78.40
2017-11-21T08:03:55.887Z,78.50
2017-11-21T08:06:23.362Z,78.50
2017-11-21T08:08:51.584Z,78.50
2017-11-21T08:11:19.839Z,78.50
2017-11-21T08:13:47.297Z,78.50
2017-11-21T08:16:14.755Z,78.30
2017-11-21T08:18:42.235Z,78.20
2017-11-21T08:21:10.491Z,78.20
2017-11-21T08:23:37.984Z,78.20
2017-11-21T08:26:06.199Z,78.20
2017-11-21T08:28:33.654Z,78.50
2017-11-21T08:31:01.146Z,78.10
2017-11-21T08:33:28.605Z,78.10
2017-11-21T08:35:56.087Z,78.10
2017-11-21T08:38:24.344Z,78.20
2017-11-21T08:40:51.810Z,78.20
2017-11-21T08:43:19.292Z,78.00
2017-11-21T08:45:47.535Z,78.10
2017-11-21T08:48:15.011Z,78.10
2017-11-21T08:50:42.466Z,77.90
2017-11-21T08:53:10.731Z,78.00
2017-11-21T08:55:38.182Z,78.00
2017-11-21T08:58:05.636Z,78.00
2017-11-21T09:00:33.119Z,78.00
2017-11-21T09:03:01.353Z,77.80
2017-11-21T09:05:28.872Z,77.70
2017-11-21T09:07:57.091Z,77.60
2017-11-21T09:10:24.579Z,77.60
2017-11-21T09:12:52.031Z,78.30
2017-11-21T09:15:19.530Z,77.40
2017-11-21T09:17:46.984Z,77.30
2017-11-21T09:20:14.438Z,77.30
2017-11-21T09:22:42.037Z,77.40
2017-11-21T09:25:09.502Z,77.30
2017-11-21T09:27:36.959Z,77.40
2017-11-21T09:30:04.439Z,77.50
2017-11-21T09:32:32.006Z,77.40
2017-11-21T09:34:59.459Z,77.40
2017-11-21T09:37:26.930Z,77.30
2017-11-21T09:39:54.439Z,77.30
2017-11-21T09:42:21.906Z,77.10
2017-11-21T09:44:49.395Z,77.20
2017-11-21T09:47:17.747Z,77.10
2017-11-21T09:49:45.227Z,77.10
2017-11-21T09:52:12.698Z,76.90
2017-11-21T09:54:40.200Z,77.00
2017-11-21T09:57:08.739Z,77.10
2017-11-21T09:59:36.190Z,77.00
2017-11-21T10:02:03.687Z,77.10
2017-11-21T10:04:31.138Z,77.20
2017-11-21T10:06:59.363Z,77.50
2017-11-21T10:09:26.863Z,77.40
2017-11-21T10:11:54.306Z,77.60
2017-11-21T10:14:21.825Z,77.70
2017-11-21T10:16:49.282Z,77.80
2017-11-21T10:19:17.514Z,78.00
2017-11-21T10:21:45.770Z,78.40
2017-11-21T10:24:13.247Z,78.30
2017-11-21T10:26:41.547Z,78.40
2017-11-21T10:29:09.035Z,79.20
2017-11-21T10:31:36.487Z,78.50
2017-11-21T10:34:03.939Z,78.60
2017-11-21T10:36:31.414Z,78.70
2017-11-21T10:38:58.866Z,78.80
2017-11-21T10:41:26.341Z,78.80
2017-11-21T10:43:53.810Z,78.90
2017-11-21T10:46:21.263Z,79.00
2017-11-21T10:48:48.756Z,79.10
2017-11-21T10:51:16.215Z,79.10
2017-11-21T10:53:44.430Z,79.50
2017-11-21T10:56:11.909Z,79.40
2017-11-21T10:58:39.357Z,79.60
2017-11-21T11:01:06.830Z,79.60
2017-11-21T11:03:34.307Z,79.60
2017-11-21T11:06:01.801Z,79.70
2017-11-21T11:08:29.293Z,79.70
2017-11-21T11:10:56.746Z,79.80
2017-11-21T11:13:24.207Z,79.70
2017-11-21T11:15:51.690Z,79.80
2017-11-21T11:18:19.171Z,79.90
2017-11-21T11:20:48.333Z,79.90
2017-11-21T11:23:15.811Z,79.90
2017-11-21T11:25:44.199Z,79.90
2017-11-21T11:28:12.448Z,80.10
2017-11-21T11:30:39.940Z,80.00
2017-11-21T11:33:07.397Z,80.30
2017-11-21T11:35:35.684Z,80.50
2017-11-21T11:38:03.919Z,80.50
2017-11-21T11:40:31.451Z,80.60
2017-11-21T11:42:59.019Z,80.70
2017-11-21T11:45:26.519Z,80.60
2017-11-21T11:47:54.084Z,80.70
2017-11-21T11:50:21.596Z,80.50
2017-11-21T11:52:49.844Z,80.30
2017-11-21T11:55:17.332Z,80.30
2017-11-21T11:57:44.830Z,80.30
2017-11-21T12:00:12.283Z,80.40
2017-11-21T12:02:39.755Z,80.50
2017-11-21T12:05:07.404Z,80.60
2017-11-21T12:07:34.849Z,80.50
2017-11-21T12:10:02.331Z,80.50
2017-11-21T12:12:29.814Z,80.50
2017-11-21T12:14:57.276Z,80.40
2017-11-21T12:17:24.803Z,80.50
2017-11-21T12:19:53.055Z,80.50
2017-11-21T12:22:20.523Z,80.30
2017-11-21T12:24:48.020Z,80.00
2017-11-21T12:27:15.484Z,80.20
2017-11-21T12:29:42.970Z,79.90
2017-11-21T12:32:10.627Z,79.70
2017-11-21T12:34:38.116Z,79.70
2017-11-21T12:37:05.577Z,79.60
2017-11-21T12:39:33.062Z,79.40
2017-11-21T12:42:01.282Z,78.80
2017-11-21T12:44:28.746Z,78.90
2017-11-21T12:46:56.359Z,78.60
2017-11-21T12:49:23.823Z,78.60
2017-11-21T12:51:51.291Z,78.60
2017-11-21T12:54:18.775Z,78.50
2017-11-21T12:56:46.271Z,78.40
2017-11-21T12:59:13.735Z,78.40
2017-11-21T13:01:41.193Z,78.20
2017-11-21T13:04:08.694Z,78.20
2017-11-21T13:06:36.170Z,78.10
2017-11-21T13:09:03.653Z,78.10
2017-11-21T13:11:31.150Z,77.90
2017-11-21T13:13:58.615Z,77.90
2017-11-21T13:16:26.215Z,77.80
2017-11-21T13:18:53.701Z,77.60
2017-11-21T13:21:21.160Z,77.70
2017-11-21T13:23:48.644Z,78.00
2017-11-21T13:26:16.100Z,78.30
2017-11-21T13:28:43.580Z,78.50
2017-11-21T13:31:11.044Z,78.80
2017-11-21T13:33:38.527Z,79.00
2017-11-21T13:36:06.014Z,79.00
2017-11-21T13:38:34.233Z,78.90
2017-11-21T13:41:01.722Z,78.90
2017-11-21T13:43:29.192Z,79.00
2017-11-21T13:45:56.698Z,78.90
2017-11-21T13:48:24.190Z,78.70
2017-11-21T13:50:51.667Z,78.50
2017-11-21T13:53:19.127Z,78.60
2017-11-21T13:55:46.608Z,78.60
2017-11-21T13:58:14.114Z,78.60
2017-11-21T14:00:41.566Z,78.60
2017-11-21T14:03:09.022Z,78.70
2017-11-21T14:05:36.507Z,78.60
2017-11-21T14:08:03.967Z,78.70
2017-11-21T14:10:31.463Z,78.70
2017-11-21T14:12:59.683Z,78.60
2017-11-21T14:15:27.190Z,78.70
2017-11-21T14:17:55.443Z,78.70
2017-11-21T14:20:22.903Z,78.70
2017-11-21T14:22:51.320Z,78.70
2017-11-21T14:25:18.779Z,78.80
2017-11-21T14:27:46.235Z,78.90
2017-11-21T14:30:13.722Z,78.80
2017-11-21T14:32:41.184Z,78.60
2017-11-21T14:35:08.701Z,78.60
2017-11-21T14:37:36.928Z,78.50
2017-11-21T14:40:04.406Z,78.50
2017-11-21T14:42:31.904Z,78.50
2017-11-21T14:45:00.166Z,78.60
2017-11-21T14:47:28.407Z,78.60
2017-11-21T14:49:55.896Z,78.60
2017-11-21T14:52:23.471Z,78.60
2017-11-21T14:54:52.640Z,78.60
2017-11-21T14:57:20.116Z,78.50
2017-11-21T14:59:47.603Z,78.40
2017-11-21T15:02:15.099Z,78.30
2017-11-21T15:04:42.582Z,78.30
2017-11-21T15:07:10.083Z,78.40
2017-11-21T15:09:37.563Z,78.20
2017-11-21T15:12:05.044Z,78.00
2017-11-21T15:14:32.536Z,77.90
2017-11-21T15:17:00.770Z,77.70
2017-11-21T15:19:28.235Z,77.70
2017-11-21T15:21:55.728Z,77.70
2017-11-21T15:24:23.999Z,77.60
2017-11-21T15:26:53.181Z,77.50
2017-11-21T15:29:20.678Z,77.50
2017-11-21T15:31:48.148Z,77.30
2017-11-21T15:34:15.623Z,77.30
2017-11-21T15:36:44.086Z,77.30
2017-11-21T15:39:11.554Z,77.10
2017-11-21T15:41:39.058Z,77.30
2017-11-21T15:44:06.537Z,77.10
2017-11-21T15:46:34.003Z,77.10
2017-11-21T15:49:02.251Z,76.80
2017-11-21T15:51:29.739Z,76.70
2017-11-21T15:53:57.246Z,76.70
2017-11-21T15:56:25.477Z,76.40
2017-11-21T15:58:52.975Z,76.40
2017-11-21T16:01:20.464Z,76.30
2017-11-21T16:03:47.932Z,76.20
2017-11-21T16:06:15.451Z,76.30
2017-11-21T16:08:42.907Z,76.30
2017-11-21T16:11:10.366Z,76.10
2017-11-21T16:13:37.851Z,76.10
2017-11-21T16:16:05.331Z,75.80
2017-11-21T16:18:32.819Z,75.90
2017-11-21T16:21:00.307Z,75.80
2017-11-21T16:23:27.782Z,75.70
2017-11-21T16:25:55.275Z,75.70
2017-11-21T16:28:23.439Z,75.70
2017-11-21T16:30:50.955Z,75.70
2017-11-21T16:33:18.406Z,75.70
2017-11-21T16:35:45.907Z,75.60
2017-11-21T16:38:13.389Z,75.50
2017-11-21T16:40:40.849Z,75.10
2017-11-21T16:43:08.308Z,75.30
2017-11-21T16:45:35.790Z,75.30
2017-11-21T16:48:03.251Z,75.30
2017-11-21T16:50:30.747Z,75.20
2017-11-21T16:52:58.237Z,75.30
2017-11-21T16:55:25.739Z,75.20
2017-11-21T16:57:54.620Z,75.10
2017-11-21T17:00:22.072Z,75.00
2017-11-21T17:02:49.737Z,75.10
2017-11-21T17:05:17.420Z,74.80
2017-11-21T17:07:45.673Z,74.60
2017-11-21T17:10:13.133Z,74.60
2017-11-21T17:12:40.630Z,74.50
2017-11-21T17:15:08.133Z,74.40
2017-11-21T17:17:35.594Z,74.30
2017-11-21T17:20:03.079Z,74.20
2017-11-21T17:22:30.544Z,74.40
2017-11-21T17:24:58.034Z,74.40
2017-11-21T17:27:25.504Z,75.00
2017-11-21T17:29:54.675Z,73.90
2017-11-21T17:32:22.143Z,73.90
2017-11-21T17:34:49.620Z,73.80
2017-11-21T17:37:17.860Z,74.10
2017-11-21T17:39:45.559Z,74.00
2017-11-21T17:42:13.964Z,73.50
2017-11-21T17:44:41.637Z,73.50
2017-11-21T17:47:09.248Z,73.60
2017-11-21T17:49:36.892Z,73.50
2017-11-21T17:52:04.639Z,73.50
2017-11-21T17:54:32.285Z,73.50
2017-11-21T17:56:59.980Z,73.60
2017-11-21T17:59:27.631Z,73.70
2017-11-21T18:01:56.233Z,73.50
2017-11-21T18:04:24.013Z,73.50
2017-11-21T18:06:51.710Z,73.40
2017-11-21T18:09:19.437Z,73.20
2017-11-21T18:11:47.136Z,73.20
2017-11-21T18:14:15.244Z,73.20
2017-11-21T18:16:43.286Z,73.20
2017-11-21T18:19:11.197Z,73.20
2017-11-21T18:21:39.711Z,73.30
2017-11-21T18:24:08.491Z,73.20
2017-11-21T18:26:36.204Z,73.20
2017-11-21T18:29:04.162Z,73.10
2017-11-21T18:31:31.879Z,73.00
2017-11-21T18:33:59.972Z,73.20
2017-11-21T18:36:28.993Z,73.10
2017-11-21T18:38:57.212Z,73.10
2017-11-21T18:41:25.126Z,73.10
2017-11-21T18:43:52.817Z,73.10
2017-11-21T18:46:20.753Z,73.10
2017-11-21T18:48:48.545Z,73.10
2017-11-21T18:51:16.268Z,72.80
2017-11-21T18:53:44.724Z,72.80
2017-11-21T18:56:12.607Z,72.80
2017-11-21T18:58:40.381Z,72.80
2017-11-21T19:01:09.102Z,72.80
2017-11-21T19:03:37.014Z,72.80
2017-11-21T19:06:05.685Z,72.90
2017-11-21T19:08:34.271Z,72.80
2017-11-21T19:11:02.070Z,72.70
2017-11-21T19:13:30.525Z,72.50
2017-11-21T19:15:58.770Z,72.60
2017-11-21T19:18:27.034Z,72.60
2017-11-21T19:20:55.857Z,72.60
2017-11-21T19:23:23.691Z,72.50
2017-11-21T19:25:51.469Z,72.40
2017-11-21T19:28:19.290Z,72.30
2017-11-21T19:30:47.901Z,72.00
2017-11-21T19:33:15.712Z,72.00
2017-11-21T19:35:43.685Z,72.00
2017-11-21T19:38:11.361Z,72.10
2017-11-21T19:40:39.964Z,72.20
2017-11-21T19:43:07.853Z,72.20
2017-11-21T19:45:36.392Z,72.00
2017-11-21T19:48:04.385Z,72.80
2017-11-21T19:50:33.379Z,72.10
2017-11-21T19:53:01.258Z,72.00
2017-11-21T19:55:29.306Z,72.20
2017-11-21T19:57:58.353Z,71.70
2017-11-21T20:00:26.156Z,71.70
2017-11-21T20:02:54.802Z,72.00
2017-11-21T20:05:23.083Z,71.90
2017-11-21T20:07:50.904Z,71.70
2017-11-21T20:10:19.413Z,71.50
2017-11-21T20:12:47.163Z,71.50
2017-11-21T20:15:15.625Z,71.40
2017-11-21T20:17:43.497Z,71.50
2017-11-21T20:20:11.282Z,72.30
2017-11-21T20:22:39.952Z,71.40
2017-11-21T20:25:07.872Z,71.40
2017-11-21T20:27:36.782Z,71.30
2017-11-21T20:30:04.571Z,71.30
2017-11-21T20:32:32.379Z,71.30
2017-11-21T20:35:00.166Z,72.20
2017-11-21T20:37:29.215Z,71.20
2017-11-21T20:39:58.406Z,71.30
2017-11-21T20:42:26.067Z,71.20
2017-11-21T20:44:53.804Z,71.00
2017-11-21T20:47:21.479Z,70.90
2017-11-21T20:49:50.069Z,71.10
2017-11-21T20:52:17.737Z,70.80
2017-11-21T20:54:45.785Z,70.90
2017-11-21T20:57:13.727Z,70.90
2017-11-21T20:59:42.571Z,70.90
2017-11-21T21:02:10.348Z,70.80
2017-11-21T21:04:39.133Z,70.70
2017-11-21T21:07:07.373Z,70.50
2017-11-21T21:09:34.933Z,70.50
2017-11-21T21:12:02.756Z,70.70
2017-11-21T21:14:30.414Z,70.70
2017-11-21T21:16:58.896Z,70.70
2017-11-21T21:19:26.455Z,70.60
2017-11-21T21:21:53.959Z,70.50
2017-11-21T21:24:21.473Z,70.40
2017-11-21T21:26:49.742Z,70.40
2017-11-21T21:29:17.984Z,70.30
2017-11-21T21:31:45.469Z,70.30
2017-11-21T21:34:12.935Z,70.30
2017-11-21T21:36:40.738Z,70.30
2017-11-21T21:39:09.032Z,71.10
2017-11-21T21:41:36.508Z,71.10
2017-11-21T21:44:03.978Z,70.40
2017-11-21T21:46:31.490Z,70.20
2017-11-21T21:48:59.910Z,70.20
2017-11-21T21:51:27.390Z,70.20
2017-11-21T21:53:54.855Z,70.10
2017-11-21T21:56:23.117Z,70.10
2017-11-21T21:58:50.617Z,70.00
2017-11-21T22:01:18.107Z,70.80
2017-11-21T22:03:45.571Z,69.90
2017-11-21T22:06:13.027Z,69.90
2017-11-21T22:08:40.541Z,70.00
2017-11-21T22:11:08.021Z,70.00
2017-11-21T22:13:35.507Z,69.90
2017-11-21T22:16:03.030Z,69.90
2017-11-21T22:18:30.522Z,69.80
2017-11-21T22:20:57.988Z,69.80
2017-11-21T22:23:25.464Z,69.70
2017-11-21T22:25:52.942Z,69.80
2017-11-21T22:28:20.413Z,69.80
2017-11-21T22:30:47.890Z,69.90
2017-11-21T22:33:15.370Z,70.00
2017-11-21T22:35:42.850Z,69.80
2017-11-21T22:38:10.310Z,69.80
2017-11-21T22:40:37.771Z,69.80
2017-11-21T22:43:05.259Z,69.70
2017-11-21T22:45:33.566Z,69.80
2017-11-21T22:48:01.058Z,69.80
2017-11-21T22:50:28.518Z,69.80
2017-11-21T22:52:55.999Z,69.80
2017-11-21T22:55:23.471Z,69.80
2017-11-21T22:57:50.967Z,69.70
2017-11-21T23:00:18.422Z,69.70
2017-11-21T23:02:45.893Z,69.70
2017-11-21T23:05:13.423Z,69.70
2017-11-21T23:07:40.936Z,69.70
2017-11-21T23:10:08.440Z,69.80
2017-11-21T23:12:35.902Z,69.80
2017-11-21T23:15:03.462Z,69.90
2017-11-21T23:17:30.999Z,69.90
2017-11-21T23:19:58.475Z,69.90
2017-11-21T23:22:25.959Z,69.80
2017-11-21T23:24:53.419Z,69.80
2017-11-21T23:27:20.923Z,69.80
2017-11-21T23:29:49.151Z,69.90
2017-11-21T23:32:16.601Z,69.80
2017-11-21T23:34:44.083Z,69.90
2017-11-21T23:37:11.582Z,69.70
2017-11-21T23:39:39.847Z,70.00
2017-11-21T23:42:07.311Z,70.00
2017-11-21T23:44:35.546Z,69.90
2017-11-21T23:47:03.030Z,69.70
2017-11-21T23:49:30.500Z,69.60
2017-11-21T23:51:58.750Z,69.90
2017-11-21T23:54:26.210Z,69.90
2017-11-21T23:56:53.699Z,69.70
2017-11-21T23:59:21.955Z,69.80
